Terminal Aerodrome Forecast
Issued by NWS Nashville, TN

Home | Current Version | Previous Version | Text Only | Print | Product List | Glossary On
Versions: 1 2 3 4 5 6 7 8 9 10 11 12 13 14 15 16 17 18 19 20 21 22 23
000
FTUS44 KOHX 010900 AAA
TAFCSV
TAF AMD
KCSV 010904Z 0109/0206 18009G18KT P6SM OVC120
     FM011500 18010G18KT P6SM VCSH OVC050
     FM011800 18010G20KT 6SM -SHRA BR BKN030 OVC050
     FM012100 20010G20KT 3SM RA BR BKN005 OVC010
     FM020200 24012KT 2SM -RA BR OVC003=

USA.gov is the U.S. government's official web portal to all federal, state and local government web resources and services.